Time;durP1;ratioP1;P1;durP2;ratioP2;P2;SDS_P1;SDS_P2;PMS_P1;PMS_P2;Temp;Humidity;BMP_temperature;BMP_pressure;BME280_temperature;BME280_humidity;BME280_pressure;Samples;Min_cycle;Max_cycle;Signal;HPM_P1;HPM_P2
2022/03/22 00:00:10;;;;;;;16.85;9.90;;;4.50;45.30;;;;;;5041779;28;20045;-61
2022/03/22 00:02:36;;;;;;;15.23;9.20;;;4.50;45.50;;;;;;5059261;28;20109;-63
2022/03/22 00:05:03;;;;;;;17.00;8.98;;;4.40;45.50;;;;;;5042677;28;20097;-63
2022/03/22 00:07:29;;;;;;;18.58;10.30;;;4.40;45.70;;;;;;5035994;28;20064;-63
2022/03/22 00:09:55;;;;;;;15.55;9.10;;;4.40;45.80;;;;;;5049275;28;20033;-63
2022/03/22 00:12:21;;;;;;;18.10;10.13;;;4.50;45.90;;;;;;5047275;28;20091;-62
2022/03/22 00:14:46;;;;;;;16.42;10.18;;;4.30;46.00;;;;;;5050390;28;20547;-62
2022/03/22 00:17:12;;;;;;;18.02;10.38;;;4.30;46.00;;;;;;5054052;28;20033;-63
2022/03/22 00:19:38;;;;;;;15.38;10.10;;;4.30;46.10;;;;;;5057795;28;20034;-63
2022/03/22 00:22:04;;;;;;;17.55;10.02;;;4.30;46.00;;;;;;5046237;28;20092;-61
2022/03/22 00:24:30;;;;;;;20.65;10.38;;;4.20;46.00;;;;;;5045044;28;20037;-62
2022/03/22 00:26:56;;;;;;;18.67;9.60;;;4.40;46.20;;;;;;5046138;28;20424;-63
2022/03/22 00:29:22;;;;;;;15.95;10.00;;;4.20;46.10;;;;;;5048196;28;20036;-61
2022/03/22 00:31:48;;;;;;;18.23;10.20;;;4.20;46.20;;;;;;5046067;28;20026;-64
2022/03/22 00:34:14;;;;;;;17.70;9.48;;;4.10;46.30;;;;;;5044727;28;20125;-63
2022/03/22 00:36:41;;;;;;;15.95;9.40;;;4.10;46.40;;;;;;5044713;28;20124;-62
2022/03/22 00:39:07;;;;;;;22.20;8.95;;;4.10;46.50;;;;;;5046766;28;20048;-63
2022/03/22 00:41:33;;;;;;;19.33;9.55;;;4.10;46.50;;;;;;5045358;28;20104;-61
2022/03/22 00:43:59;;;;;;;18.27;10.27;;;4.10;46.50;;;;;;5048790;28;20037;-63
2022/03/22 00:46:24;;;;;;;17.67;10.45;;;4.00;46.50;;;;;;5045120;28;20017;-62
2022/03/22 00:48:50;;;;;;;16.45;9.20;;;4.00;46.80;;;;;;5046647;28;20034;-61
2022/03/22 00:51:16;;;;;;;18.13;9.60;;;4.00;46.90;;;;;;5039055;28;20060;-61
2022/03/22 00:53:41;;;;;;;14.80;8.65;;;3.90;46.90;;;;;;5028268;28;20064;-62
2022/03/22 00:56:08;;;;;;;17.98;9.73;;;3.90;46.90;;;;;;5025360;28;20494;-61
2022/03/22 00:58:34;;;;;;;15.13;9.48;;;3.90;47.00;;;;;;5028397;28;20022;-60
2022/03/22 01:01:00;;;;;;;15.55;9.35;;;3.90;47.10;;;;;;5025334;28;20049;-63
2022/03/22 01:03:28;;;;;;;18.67;10.07;;;3.90;47.10;;;;;;5026621;28;20034;-62
2022/03/22 01:05:54;;;;;;;16.67;8.95;;;3.80;47.10;;;;;;5024913;28;20022;-61
2022/03/22 01:08:20;;;;;;;18.38;9.10;;;3.80;47.10;;;;;;5026794;28;20102;-61
2022/03/22 01:10:52;;;;;;;17.42;9.63;;;3.80;47.00;;;;;;5023806;28;20026;-62
2022/03/22 01:13:22;;;;;;;15.65;9.25;;;3.80;47.20;;;;;;5015284;28;20032;-62
2022/03/22 01:15:49;;;;;;;19.65;9.95;;;3.70;47.60;;;;;;5021291;28;20042;-60
2022/03/22 01:18:15;;;;;;;14.85;9.55;;;3.70;47.50;;;;;;5029587;28;20028;-62
2022/03/22 01:20:49;;;;;;;19.60;9.85;;;3.70;47.50;;;;;;5007260;28;20040;-63
2022/03/22 01:23:15;;;;;;;16.83;9.70;;;3.70;48.10;;;;;;5025477;28;20041;-61
2022/03/22 01:25:43;;;;;;;15.70;9.10;;;3.70;47.70;;;;;;5040773;28;20296;-60
2022/03/22 01:28:12;;;;;;;16.45;9.32;;;3.80;47.70;;;;;;5026666;28;20050;-63
2022/03/22 01:30:38;;;;;;;16.23;9.57;;;3.60;47.70;;;;;;5007003;28;20049;-63
2022/03/22 01:33:04;;;;;;;17.98;9.75;;;3.60;47.60;;;;;;5025642;28;20022;-61
2022/03/22 01:35:31;;;;;;;15.65;9.10;;;3.60;47.60;;;;;;5024821;28;20098;-61
2022/03/22 01:37:57;;;;;;;17.05;9.10;;;3.60;47.70;;;;;;5026684;28;20026;-61
2022/03/22 01:40:25;;;;;;;18.63;10.10;;;3.60;47.80;;;;;;5024947;28;20088;-63
2022/03/22 01:42:51;;;;;;;17.88;9.98;;;3.60;47.80;;;;;;5025772;28;20029;-63
2022/03/22 01:45:17;;;;;;;15.07;9.10;;;3.50;47.80;;;;;;5029768;28;20100;-62
2022/03/22 01:47:44;;;;;;;19.83;8.88;;;3.50;47.70;;;;;;4900456;28;20385;-62
2022/03/22 01:50:14;;;;;;;15.98;9.07;;;3.50;47.80;;;;;;5024708;28;20030;-61
2022/03/22 01:52:42;;;;;;;15.98;8.95;;;3.50;47.90;;;;;;5042487;28;20045;-63
2022/03/22 01:55:09;;;;;;;18.88;9.50;;;3.40;47.80;;;;;;5049293;28;20021;-63
2022/03/22 01:57:35;;;;;;;19.70;10.20;;;3.40;47.90;;;;;;5064821;28;20166;-63
2022/03/22 02:00:05;;;;;;;15.98;9.23;;;3.40;48.10;;;;;;5063876;28;20029;-63
2022/03/22 02:08:01;;;;;;;18.80;8.40;;;3.70;48.20;;;;;;5065897;28;20064;-63
2022/03/22 02:10:27;;;;;;;17.02;9.32;;;3.40;48.00;;;;;;5063621;28;20025;-63
2022/03/22 02:12:53;;;;;;;14.23;8.48;;;3.30;48.60;;;;;;5065348;28;20043;-63
2022/03/22 02:15:19;;;;;;;15.98;9.35;;;3.30;48.20;;;;;;5064889;28;20084;-63
2022/03/22 02:17:45;;;;;;;19.05;9.43;;;3.40;48.40;;;;;;5064966;28;20036;-63
2022/03/22 02:20:14;;;;;;;19.48;9.93;;;3.30;48.30;;;;;;5063917;28;20033;-63
2022/03/22 02:23:05;;;;;;;18.70;9.95;;;3.40;48.50;;;;;;5061305;28;20037;-61
2022/03/22 02:25:35;;;;;;;17.63;10.20;;;3.20;49.20;;;;;;5025164;28;20040;-63
2022/03/22 02:28:03;;;;;;;16.52;9.70;;;3.20;48.40;;;;;;5064639;28;20117;-63
2022/03/22 02:30:29;;;;;;;17.10;9.25;;;3.20;48.50;;;;;;5062587;28;20081;-63
2022/03/22 02:32:58;;;;;;;18.95;9.40;;;3.20;48.60;;;;;;5065163;28;20055;-62
2022/03/22 02:35:24;;;;;;;16.67;9.32;;;3.20;48.80;;;;;;5063367;28;20037;-63
2022/03/22 02:37:50;;;;;;;16.83;9.73;;;3.10;48.80;;;;;;5063967;28;20025;-63
2022/03/22 02:40:16;;;;;;;12.57;7.93;;;3.10;48.80;;;;;;5062192;28;20024;-62
2022/03/22 02:42:50;;;;;;;11.55;7.57;;;3.10;48.80;;;;;;5065323;28;20032;-62
2022/03/22 02:45:18;;;;;;;14.63;8.48;;;3.10;48.80;;;;;;5061220;28;20029;-62
2022/03/22 02:47:44;;;;;;;16.95;8.85;;;3.10;48.70;;;;;;5064091;28;20037;-62
2022/03/22 02:50:11;;;;;;;13.98;8.27;;;3.10;48.80;;;;;;5061203;28;20049;-62
2022/03/22 02:52:37;;;;;;;17.85;8.75;;;3.00;48.80;;;;;;5061295;28;20050;-62
2022/03/22 02:55:06;;;;;;;15.02;8.15;;;3.20;48.90;;;;;;5059032;28;20037;-63
2022/03/22 02:57:32;;;;;;;17.88;9.32;;;3.00;48.90;;;;;;5060501;28;20040;-62
2022/03/22 02:59:57;;;;;;;14.38;9.02;;;3.10;49.10;;;;;;5052398;28;20051;-62
2022/03/22 03:02:23;;;;;;;18.15;9.70;;;3.10;49.10;;;;;;5061312;28;20092;-62
2022/03/22 03:04:49;;;;;;;15.55;8.52;;;2.90;49.10;;;;;;5064701;28;20032;-62
2022/03/22 03:07:14;;;;;;;16.98;9.15;;;2.90;49.20;;;;;;5065910;28;20039;-62
2022/03/22 03:09:40;;;;;;;15.48;8.57;;;2.90;49.20;;;;;;5063762;28;20025;-62
2022/03/22 03:12:06;;;;;;;13.65;8.38;;;2.90;49.20;;;;;;5062680;28;20180;-62
2022/03/22 03:14:41;;;;;;;17.70;9.15;;;2.90;49.10;;;;;;5048984;28;20044;-63
2022/03/22 03:17:10;;;;;;;17.00;8.95;;;2.90;49.40;;;;;;5057859;28;20468;-62
2022/03/22 03:19:36;;;;;;;16.05;9.13;;;2.80;49.40;;;;;;5058891;28;20099;-63
2022/03/22 03:22:03;;;;;;;18.55;8.82;;;2.90;49.40;;;;;;5061794;28;20480;-62
2022/03/22 03:24:30;;;;;;;16.45;8.85;;;2.80;49.40;;;;;;5052944;28;20033;-63
2022/03/22 03:26:56;;;;;;;16.45;9.27;;;2.80;49.40;;;;;;5060241;28;20032;-63
2022/03/22 03:29:22;;;;;;;17.00;8.95;;;2.80;49.40;;;;;;5062786;28;20046;-62
2022/03/22 03:31:48;;;;;;;13.75;8.60;;;2.80;49.70;;;;;;5056989;28;20057;-62
2022/03/22 03:34:14;;;;;;;18.08;8.80;;;3.00;49.90;;;;;;5051748;28;20059;-62
2022/03/22 03:36:40;;;;;;;15.18;8.75;;;2.70;49.90;;;;;;5063737;28;20041;-62
2022/03/22 03:39:05;;;;;;;18.30;9.25;;;2.70;49.90;;;;;;5046223;28;20546;-62
2022/03/22 03:47:13;;;;;;;19.08;9.15;;;2.60;50.10;;;;;;5068017;28;20075;-62
2022/03/22 03:49:39;;;;;;;14.48;8.75;;;2.70;50.00;;;;;;5070687;28;20397;-62
2022/03/22 03:52:06;;;;;;;16.50;8.32;;;2.60;50.00;;;;;;5071124;28;20100;-63
2022/03/22 03:54:32;;;;;;;14.57;8.80;;;2.60;50.10;;;;;;5053211;28;20053;-62
2022/03/22 03:56:58;;;;;;;14.10;8.55;;;2.60;50.10;;;;;;5071330;28;20037;-62
2022/03/22 03:59:24;;;;;;;17.85;8.93;;;2.90;51.00;;;;;;5070682;28;20553;-62
2022/03/22 04:01:49;;;;;;;15.43;8.88;;;2.70;50.40;;;;;;5071362;28;20047;-62
2022/03/22 04:04:15;;;;;;;14.10;8.05;;;2.50;50.30;;;;;;5070585;28;20024;-62
2022/03/22 04:06:41;;;;;;;14.13;8.40;;;2.50;50.30;;;;;;5053069;28;20409;-62
2022/03/22 04:09:06;;;;;;;18.65;7.88;;;2.70;50.30;;;;;;5070668;28;20083;-63
2022/03/22 04:11:32;;;;;;;17.50;8.40;;;2.40;50.10;;;;;;5071172;28;20021;-62
2022/03/22 04:13:58;;;;;;;15.02;8.35;;;2.40;50.20;;;;;;5052759;28;20025;-62
2022/03/22 04:16:23;;;;;;;14.10;8.15;;;2.40;50.30;;;;;;5070746;28;20041;-62
2022/03/22 04:18:50;;;;;;;13.18;7.68;;;2.50;50.40;;;;;;5071143;28;20060;-62
2022/03/22 04:21:16;;;;;;;16.90;8.32;;;2.40;50.40;;;;;;5068887;28;20051;-62
2022/03/22 04:23:42;;;;;;;14.07;7.93;;;2.40;50.30;;;;;;5067876;28;20032;-62
2022/03/22 04:26:08;;;;;;;15.02;8.48;;;2.30;50.40;;;;;;5054008;28;20053;-63
2022/03/22 04:34:02;;;;;;;16.33;8.27;;;2.30;50.10;;;;;;5071265;28;20070;-62
2022/03/22 04:36:30;;;;;;;13.43;7.65;;;2.30;50.00;;;;;;5070134;28;20032;-62
2022/03/22 04:38:56;;;;;;;15.23;8.32;;;2.40;50.30;;;;;;5070367;28;20020;-62
2022/03/22 04:41:22;;;;;;;14.63;8.20;;;2.20;50.40;;;;;;5070223;28;20108;-62
2022/03/22 04:43:48;;;;;;;20.10;7.97;;;2.30;50.50;;;;;;5070999;28;20499;-62
2022/03/22 04:46:18;;;;;;;15.52;7.82;;;2.20;50.30;;;;;;5052211;28;20021;-62
2022/03/22 04:48:45;;;;;;;18.00;8.35;;;2.20;50.40;;;;;;5075534;28;20025;-62
2022/03/22 04:56:49;;;;;;;14.70;8.18;;;2.10;50.70;;;;;;5051302;28;20411;-62
2022/03/22 04:59:22;;;;;;;;;;;2.10;50.70;;;;;;5048380;28;20052;-63
2022/03/22 05:01:49;;;;;;;13.48;6.97;;;2.20;51.50;;;;;;5057118;28;20299;-63
2022/03/22 05:04:15;;;;;;;14.70;7.38;;;2.10;50.00;;;;;;5067705;28;20025;-61
2022/03/22 05:06:41;;;;;;;14.07;7.57;;;2.10;50.20;;;;;;5066868;28;20041;-61
2022/03/22 05:09:07;;;;;;;16.20;7.93;;;2.10;50.30;;;;;;5067512;28;20075;-63
2022/03/22 05:11:34;;;;;;;16.67;8.05;;;2.10;50.40;;;;;;5066168;28;20024;-63
2022/03/22 05:14:00;;;;;;;16.23;8.65;;;2.10;50.50;;;;;;5066897;28;20021;-62
2022/03/22 05:16:26;;;;;;;14.85;8.77;;;2.20;50.70;;;;;;5066203;28;20116;-62
2022/03/22 05:18:52;;;;;;;17.48;8.88;;;2.10;50.70;;;;;;5067447;28;20021;-63
2022/03/22 05:21:19;;;;;;;22.15;9.48;;;2.00;50.90;;;;;;5066077;28;20029;-62
2022/03/22 05:23:45;;;;;;;24.60;11.68;;;2.10;51.00;;;;;;5066772;28;20089;-61
2022/03/22 05:26:12;;;;;;;20.67;10.70;;;2.00;51.10;;;;;;5064770;28;20040;-63
2022/03/22 05:28:38;;;;;;;19.40;9.85;;;2.00;51.20;;;;;;5066054;28;20064;-61
2022/03/22 05:31:05;;;;;;;16.33;9.60;;;2.00;51.30;;;;;;5046753;28;20029;-61
2022/03/22 05:33:31;;;;;;;19.17;9.40;;;2.00;51.40;;;;;;5066832;28;20035;-61
2022/03/22 05:35:57;;;;;;;17.27;9.63;;;2.00;51.40;;;;;;5065412;28;20060;-60
2022/03/22 05:38:25;;;;;;;16.05;8.82;;;2.00;51.40;;;;;;5066497;28;20032;-60
2022/03/22 05:40:52;;;;;;;17.63;9.85;;;2.00;51.50;;;;;;5064953;28;20065;-61
2022/03/22 05:43:18;;;;;;;24.38;10.23;;;2.00;51.50;;;;;;5066442;28;20020;-63
2022/03/22 05:45:48;;;;;;;16.98;9.10;;;2.00;51.50;;;;;;5065071;28;20049;-63
2022/03/22 05:48:17;;;;;;;21.95;10.30;;;2.00;51.50;;;;;;5066426;28;20063;-63
2022/03/22 05:50:44;;;;;;;21.80;9.65;;;2.00;51.50;;;;;;5064865;28;20037;-63
2022/03/22 05:53:12;;;;;;;22.67;9.98;;;2.10;51.60;;;;;;5066607;28;20029;-62
2022/03/22 05:55:38;;;;;;;17.95;10.52;;;2.10;51.60;;;;;;5064781;28;20105;-63
2022/03/22 05:58:05;;;;;;;17.92;9.52;;;2.30;51.90;;;;;;5065987;28;20065;-63
2022/03/22 06:00:31;;;;;;;18.45;9.77;;;2.30;51.90;;;;;;5066071;28;20029;-61
2022/03/22 06:02:57;;;;;;;22.20;11.45;;;2.30;51.80;;;;;;5062284;28;20033;-61
2022/03/22 06:05:23;;;;;;;20.98;10.82;;;2.50;51.70;;;;;;5065226;28;20035;-62
2022/03/22 06:07:49;;;;;;;26.00;12.02;;;2.40;51.50;;;;;;5064791;28;20025;-63
2022/03/22 06:10:15;;;;;;;27.85;12.38;;;2.50;51.50;;;;;;5065487;28;20156;-62
2022/03/22 06:12:52;;;;;;;25.38;11.85;;;2.50;51.50;;;;;;5065051;28;20025;-63
2022/03/22 06:15:25;;;;;;;19.75;11.10;;;2.70;52.10;;;;;;5065609;28;20045;-61
2022/03/22 06:17:52;;;;;;;24.02;11.60;;;2.70;52.00;;;;;;5064869;28;20052;-62
2022/03/22 06:20:20;;;;;;;23.33;10.80;;;2.80;51.80;;;;;;5042109;28;20051;-63
2022/03/22 06:22:47;;;;;;;21.92;10.35;;;2.80;51.90;;;;;;5064378;28;20029;-63
2022/03/22 06:25:13;;;;;;;18.77;10.43;;;2.90;52.00;;;;;;5065269;28;20029;-63
2022/03/22 06:27:40;;;;;;;15.82;9.20;;;3.00;52.00;;;;;;5064078;28;20022;-63
2022/03/22 06:30:08;;;;;;;17.77;9.35;;;3.10;51.90;;;;;;5065456;28;20087;-62
2022/03/22 06:32:56;;;;;;;22.42;9.05;;;3.20;51.70;;;;;;5064157;28;20020;-63
2022/03/22 06:35:32;;;;;;;18.05;8.57;;;3.60;52.60;;;;;;5056607;28;20511;-63
2022/03/22 06:38:01;;;;;;;19.58;8.38;;;3.50;51.90;;;;;;5053174;28;20026;-62
2022/03/22 06:40:29;;;;;;;32.83;10.32;;;3.70;51.80;;;;;;5065441;28;20037;-62
2022/03/22 06:42:58;;;;;;;39.33;10.18;;;4.00;52.10;;;;;;5063907;28;20025;-62
2022/03/22 06:45:24;;;;;;;33.88;9.70;;;3.80;52.00;;;;;;5064712;28;20025;-62
2022/03/22 06:47:51;;;;;;;35.75;9.88;;;4.20;52.00;;;;;;5064494;28;20029;-62
2022/03/22 06:50:18;;;;;;;20.83;10.35;;;4.10;52.00;;;;;;5064976;28;20033;-63
2022/03/22 06:52:44;;;;;;;27.42;10.30;;;4.40;52.10;;;;;;5063910;28;20056;-64
2022/03/22 06:55:11;;;;;;;22.60;10.20;;;4.30;52.00;;;;;;5055379;28;20041;-63
2022/03/22 06:57:38;;;;;;;17.23;9.07;;;4.40;51.90;;;;;;5063611;28;20021;-62
2022/03/22 07:00:09;;;;;;;21.33;10.10;;;4.90;51.80;;;;;;5064643;28;20021;-63
2022/03/22 07:02:40;;;;;;;21.25;10.45;;;4.70;51.80;;;;;;5060666;28;20033;-64
2022/03/22 07:05:08;;;;;;;23.75;10.52;;;4.90;51.90;;;;;;5061227;28;20056;-62
2022/03/22 07:07:34;;;;;;;21.17;9.35;;;5.00;51.70;;;;;;5063939;28;20029;-63
2022/03/22 07:09:59;;;;;;;25.95;10.13;;;5.10;51.60;;;;;;5064506;28;20376;-65
2022/03/22 07:12:25;;;;;;;22.40;9.57;;;5.30;52.20;;;;;;5063410;28;20029;-64
2022/03/22 07:14:51;;;;;;;26.83;10.45;;;5.50;51.50;;;;;;5064609;28;20029;-62
2022/03/22 07:17:17;;;;;;;26.13;10.35;;;5.60;51.40;;;;;;5065208;28;20036;-64
2022/03/22 07:19:42;;;;;;;29.30;10.10;;;5.80;51.40;;;;;;5069998;28;20064;-64
2022/03/22 07:22:10;;;;;;;18.95;9.32;;;6.00;51.40;;;;;;5067064;28;20040;-63
2022/03/22 07:24:36;;;;;;;18.17;9.13;;;6.10;51.20;;;;;;5071606;28;20009;-64
2022/03/22 07:27:04;;;;;;;18.23;9.38;;;6.30;50.90;;;;;;5065759;28;20084;-64
2022/03/22 07:29:30;;;;;;;26.23;10.43;;;6.50;50.60;;;;;;5049650;28;20033;-63
2022/03/22 07:31:57;;;;;;;30.02;9.52;;;6.60;50.20;;;;;;5045277;28;20029;-62
2022/03/22 07:34:23;;;;;;;20.48;9.68;;;6.80;49.90;;;;;;5064936;28;20025;-63
2022/03/22 07:36:52;;;;;;;20.75;9.52;;;6.90;49.30;;;;;;5062924;28;20033;-64
2022/03/22 07:39:19;;;;;;;23.13;11.05;;;7.10;48.80;;;;;;5064518;28;20032;-63
2022/03/22 07:41:45;;;;;;;21.02;10.25;;;7.20;48.50;;;;;;5063128;28;20029;-63
2022/03/22 07:44:15;;;;;;;16.92;9.52;;;7.40;48.30;;;;;;5064371;28;20120;-66
2022/03/22 07:46:45;;;;;;;20.40;9.60;;;7.50;48.00;;;;;;5055448;28;20013;-63
2022/03/22 07:54:40;;;;;;;15.13;7.88;;;8.10;47.20;;;;;;5044790;28;20472;-62
2022/03/22 07:57:07;;;;;;;11.75;7.70;;;8.30;47.00;;;;;;5048922;28;20045;-63
2022/03/22 07:59:33;;;;;;;12.85;7.28;;;8.40;46.50;;;;;;5044677;28;20030;-63
2022/03/22 08:01:58;;;;;;;14.98;8.07;;;8.60;45.90;;;;;;5022493;28;20037;-62
2022/03/22 08:04:24;;;;;;;14.65;6.72;;;8.80;45.90;;;;;;5043561;28;20029;-63
2022/03/22 08:06:50;;;;;;;11.23;6.53;;;8.90;45.60;;;;;;5042643;28;20026;-63
2022/03/22 08:09:15;;;;;;;11.77;6.97;;;9.10;45.30;;;;;;5043992;28;20049;-62
2022/03/22 08:11:42;;;;;;;12.55;7.05;;;9.30;45.00;;;;;;5043368;28;20033;-62
2022/03/22 08:14:08;;;;;;;15.60;6.70;;;9.40;44.80;;;;;;5043728;28;20038;-65
2022/03/22 08:16:36;;;;;;;9.43;5.97;;;9.60;44.40;;;;;;5043230;28;20037;-65
2022/03/22 08:19:05;;;;;;;10.38;7.32;;;9.80;44.10;;;;;;5046111;28;20037;-62
2022/03/22 08:21:31;;;;;;;11.65;6.47;;;9.90;43.80;;;;;;5042401;28;20488;-63
2022/03/22 08:23:57;;;;;;;15.32;6.63;;;10.10;43.40;;;;;;5043842;28;20092;-63
2022/03/22 08:26:22;;;;;;;17.70;7.32;;;10.20;43.00;;;;;;5042271;28;20018;-63
2022/03/22 08:28:49;;;;;;;13.98;7.22;;;10.40;42.60;;;;;;5046753;28;20017;-62
2022/03/22 08:31:15;;;;;;;11.55;6.72;;;10.50;42.60;;;;;;5046576;28;20025;-63
2022/03/22 08:33:41;;;;;;;11.23;7.15;;;10.60;42.30;;;;;;5047604;28;20032;-63
2022/03/22 08:36:07;;;;;;;9.85;6.45;;;10.80;42.00;;;;;;5045972;28;20041;-63
2022/03/22 08:38:33;;;;;;;13.43;7.32;;;10.90;42.00;;;;;;5047873;28;20451;-63
2022/03/22 08:40:59;;;;;;;18.77;11.15;;;11.00;41.80;;;;;;5045920;28;20036;-63
2022/03/22 08:43:25;;;;;;;18.65;10.18;;;11.20;41.90;;;;;;5047879;28;20018;-63
2022/03/22 08:45:52;;;;;;;17.42;9.50;;;11.30;41.40;;;;;;5045706;28;20029;-64
2022/03/22 08:48:18;;;;;;;18.25;9.35;;;11.50;41.40;;;;;;5029764;28;20104;-64
2022/03/22 08:50:50;;;;;;;20.45;9.23;;;11.60;40.60;;;;;;5045649;28;20065;-64
2022/03/22 08:53:17;;;;;;;13.60;8.40;;;11.70;40.30;;;;;;5042019;28;20038;-64
2022/03/22 08:55:45;;;;;;;15.45;8.27;;;11.80;40.70;;;;;;5052207;28;20111;-64
2022/03/22 08:58:11;;;;;;;19.23;8.07;;;11.90;40.60;;;;;;5047239;28;20049;-65
2022/03/22 09:00:37;;;;;;;13.35;8.60;;;12.00;40.40;;;;;;5045918;28;20033;-63
2022/03/22 09:03:05;;;;;;;18.02;8.98;;;12.20;40.40;;;;;;5047197;28;20082;-64
2022/03/22 09:08:15;;;;;;;11.82;7.13;;;12.40;40.00;;;;;;5043465;28;20478;-64
2022/03/22 09:10:41;;;;;;;18.65;8.75;;;12.50;39.70;;;;;;5040995;28;20029;-64
2022/03/22 09:13:07;;;;;;;15.70;9.48;;;12.60;39.60;;;;;;5029375;28;20428;-65
2022/03/22 09:15:39;;;;;;;18.20;9.23;;;12.80;39.50;;;;;;5028756;28;20056;-65
2022/03/22 09:18:15;;;;;;;13.88;8.23;;;12.90;39.10;;;;;;5041728;28;20029;-63
2022/03/22 09:20:43;;;;;;;12.23;8.05;;;13.10;39.30;;;;;;5028380;28;20037;-65
2022/03/22 09:23:09;;;;;;;17.23;9.35;;;13.20;39.00;;;;;;5029340;28;20127;-65
2022/03/22 09:25:36;;;;;;;14.40;8.38;;;13.40;39.10;;;;;;5045439;28;20032;-65
2022/03/22 09:28:05;;;;;;;14.63;8.07;;;13.50;39.30;;;;;;5041083;28;20025;-65
2022/03/22 09:30:32;;;;;;;17.05;8.38;;;13.60;39.40;;;;;;5046666;28;20060;-65
2022/03/22 09:32:58;;;;;;;16.05;8.85;;;13.80;38.60;;;;;;5045828;28;20029;-65
2022/03/22 09:35:24;;;;;;;19.23;9.23;;;13.90;38.20;;;;;;5039475;28;20164;-63
2022/03/22 09:37:50;;;;;;;15.85;8.75;;;14.00;38.20;;;;;;5045530;28;20029;-65
2022/03/22 09:40:18;;;;;;;20.45;9.02;;;14.10;37.80;;;;;;5045849;28;20029;-64
2022/03/22 09:42:46;;;;;;;14.80;8.48;;;14.20;37.60;;;;;;5043930;28;20030;-64
2022/03/22 09:45:14;;;;;;;15.45;8.95;;;14.30;37.50;;;;;;5037784;28;20022;-64
2022/03/22 09:47:42;;;;;;;14.57;9.20;;;14.40;37.40;;;;;;5044964;28;20093;-64
2022/03/22 09:50:09;;;;;;;12.90;8.05;;;14.50;37.10;;;;;;5053938;28;20025;-65
2022/03/22 09:52:36;;;;;;;18.55;9.30;;;14.60;36.90;;;;;;5044781;28;20056;-64
2022/03/22 09:55:03;;;;;;;15.98;9.07;;;14.70;36.90;;;;;;5046264;28;20057;-65
2022/03/22 09:57:29;;;;;;;23.13;9.40;;;14.80;36.80;;;;;;5032324;28;20033;-65
2022/03/22 09:59:54;;;;;;;15.48;9.48;;;14.90;36.80;;;;;;5045145;28;20056;-66
2022/03/22 10:02:27;;;;;;;18.17;9.02;;;15.00;36.50;;;;;;5035837;28;20490;-64
2022/03/22 10:04:53;;;;;;;13.10;8.68;;;15.10;36.30;;;;;;5046141;28;20033;-65
2022/03/22 10:07:20;;;;;;;16.02;9.88;;;15.20;36.50;;;;;;5044876;28;20022;-64
2022/03/22 10:10:04;;;;;;;16.40;8.68;;;15.30;35.40;;;;;;5045884;28;20033;-64
2022/03/22 10:12:31;;;;;;;19.33;9.70;;;15.40;35.80;;;;;;5044469;28;20026;-63
2022/03/22 10:15:08;;;;;;;15.10;9.90;;;15.50;36.20;;;;;;5045715;28;20496;-64
2022/03/22 10:17:34;;;;;;;15.93;9.65;;;15.50;36.00;;;;;;5044230;28;20076;-63
2022/03/22 10:20:00;;;;;;;13.57;8.93;;;15.60;36.40;;;;;;5047351;28;20476;-65
2022/03/22 10:22:27;;;;;;;15.35;10.23;;;15.80;36.30;;;;;;5044634;28;20030;-64
2022/03/22 10:24:57;;;;;;;23.35;10.80;;;15.90;36.20;;;;;;5019021;28;20029;-64
2022/03/22 10:27:37;;;;;;;14.32;9.88;;;16.00;35.80;;;;;;5044558;28;20029;-64
2022/03/22 10:30:06;;;;;;;14.48;9.80;;;16.10;35.90;;;;;;5045396;28;20041;-63
2022/03/22 10:32:44;;;;;;;12.52;8.93;;;16.20;35.70;;;;;;5033154;28;20041;-65
2022/03/22 10:35:45;;;;;;;17.85;9.70;;;16.30;35.60;;;;;;5040698;28;20046;-64
2022/03/22 10:38:14;;;;;;;16.90;9.57;;;16.40;35.10;;;;;;5027503;28;20097;-64
2022/03/22 10:40:45;;;;;;;16.67;9.43;;;16.60;35.70;;;;;;5043689;28;20033;-64
2022/03/22 10:43:18;;;;;;;16.77;9.90;;;16.70;35.30;;;;;;5045444;28;20029;-64
2022/03/22 10:45:45;;;;;;;13.43;9.30;;;16.80;35.40;;;;;;5041616;28;20030;-65
2022/03/22 10:48:20;;;;;;;16.55;10.48;;;16.90;35.30;;;;;;5048462;28;20108;-65
2022/03/22 10:50:47;;;;;;;17.48;10.55;;;16.90;35.00;;;;;;5042127;28;20022;-65
2022/03/22 10:53:17;;;;;;;17.63;10.80;;;17.00;34.90;;;;;;5038727;28;20045;-65
2022/03/22 10:55:44;;;;;;;19.17;10.88;;;17.10;34.50;;;;;;5042741;28;20112;-65
2022/03/22 10:58:14;;;;;;;17.75;10.65;;;17.20;34.70;;;;;;5059827;28;20033;-66
2022/03/22 11:00:42;;;;;;;30.10;14.95;;;17.30;34.70;;;;;;5043653;28;20060;-64
2022/03/22 11:03:09;;;;;;;22.50;11.88;;;17.40;34.30;;;;;;5045029;28;20029;-64
2022/03/22 11:05:36;;;;;;;20.85;11.43;;;17.50;34.60;;;;;;5043775;28;20459;-63
2022/03/22 11:08:02;;;;;;;16.35;11.30;;;17.60;34.50;;;;;;5044788;28;20041;-65
2022/03/22 11:10:29;;;;;;;15.68;10.52;;;17.90;34.30;;;;;;5031703;28;20121;-65
2022/03/22 11:12:59;;;;;;;18.20;11.05;;;17.80;34.30;;;;;;5043815;28;20029;-65
2022/03/22 11:15:29;;;;;;;17.50;11.10;;;17.90;33.40;;;;;;5044326;28;20096;-65
2022/03/22 11:17:56;;;;;;;17.48;10.88;;;17.90;34.00;;;;;;5043388;28;20092;-65
2022/03/22 11:20:25;;;;;;;15.82;10.40;;;18.00;33.90;;;;;;5049944;28;20029;-65
2022/03/22 11:22:54;;;;;;;15.48;10.52;;;18.10;33.60;;;;;;5044136;28;20026;-65
2022/03/22 11:25:30;;;;;;;16.70;10.48;;;18.20;33.90;;;;;;5044442;28;20021;-65
2022/03/22 11:28:04;;;;;;;20.90;10.63;;;18.30;33.50;;;;;;5043645;28;20041;-65
2022/03/22 11:30:31;;;;;;;16.27;10.73;;;18.40;33.30;;;;;;5044418;28;20541;-66
2022/03/22 11:35:52;;;;;;;20.48;11.32;;;18.60;33.80;;;;;;5040245;28;20072;-65
2022/03/22 11:38:43;;;;;;;19.48;11.55;;;18.80;33.20;;;;;;5044855;28;20025;-65
2022/03/22 11:44:18;;;;;;;22.20;12.30;;;19.00;32.80;;;;;;5037070;28;20045;-65
2022/03/22 11:46:45;;;;;;;19.75;11.32;;;19.10;33.00;;;;;;5039853;28;20397;-64
2022/03/22 11:49:22;;;;;;;17.35;11.75;;;19.20;33.20;;;;;;5059927;28;20067;-65
2022/03/22 11:51:52;;;;;;;16.08;11.25;;;19.30;33.10;;;;;;5042851;28;20084;-65
2022/03/22 11:54:17;;;;;;;17.73;11.02;;;19.50;33.50;;;;;;5026548;28;20030;-65
2022/03/22 11:56:51;;;;;;;13.93;9.98;;;19.50;32.80;;;;;;5043027;28;20132;-64
2022/03/22 11:59:20;;;;;;;13.68;9.77;;;19.60;32.10;;;;;;5044433;28;20026;-65
2022/03/22 12:01:57;;;;;;;18.42;9.77;;;19.80;32.30;;;;;;5040483;28;20094;-65
2022/03/22 12:04:35;;;;;;;19.58;10.40;;;19.90;31.20;;;;;;5048249;28;20025;-65
2022/03/22 12:07:02;;;;;;;16.58;11.05;;;20.00;31.50;;;;;;5042483;28;20036;-65
2022/03/22 12:09:28;;;;;;;15.82;11.55;;;20.00;31.90;;;;;;5048057;28;20123;-66
2022/03/22 12:11:56;;;;;;;14.55;10.60;;;20.10;31.40;;;;;;5058218;28;20035;-65
2022/03/22 12:14:34;;;;;;;16.83;11.02;;;20.10;31.40;;;;;;5048327;28;20067;-63
2022/03/22 12:17:02;;;;;;;17.42;9.95;;;20.20;30.40;;;;;;5041159;28;20144;-65
2022/03/22 12:19:32;;;;;;;16.00;10.60;;;20.30;31.00;;;;;;5041538;28;20033;-65
2022/03/22 12:22:00;;;;;;;20.67;11.13;;;20.40;31.10;;;;;;5047035;28;20148;-64
2022/03/22 12:24:30;;;;;;;13.90;9.27;;;20.50;30.40;;;;;;5047869;28;20476;-65
2022/03/22 12:26:58;;;;;;;19.95;9.75;;;20.60;30.30;;;;;;5046245;28;20025;-65
2022/03/22 12:29:25;;;;;;;14.90;9.93;;;20.60;30.00;;;;;;5047908;28;20037;-65
2022/03/22 12:31:53;;;;;;;14.55;9.80;;;20.70;29.90;;;;;;5046487;28;20479;-65
2022/03/22 12:34:23;;;;;;;19.67;10.32;;;20.80;29.80;;;;;;5046385;28;20100;-63
2022/03/22 12:36:48;;;;;;;16.48;10.85;;;20.90;29.70;;;;;;5046668;28;20091;-64
2022/03/22 12:39:14;;;;;;;23.10;9.93;;;21.00;29.70;;;;;;5029516;28;20033;-63
2022/03/22 12:41:43;;;;;;;16.30;9.35;;;21.10;29.70;;;;;;5045730;28;20060;-64
2022/03/22 12:44:09;;;;;;;14.82;9.50;;;21.20;29.20;;;;;;5047478;28;20073;-63
2022/03/22 12:46:35;;;;;;;22.63;9.50;;;21.30;29.30;;;;;;4992203;28;20073;-64
2022/03/22 12:49:03;;;;;;;15.20;9.20;;;21.30;29.00;;;;;;5047444;28;20029;-64
2022/03/22 12:51:31;;;;;;;14.00;8.45;;;21.40;29.20;;;;;;5050675;28;20044;-65
2022/03/22 12:53:58;;;;;;;13.63;8.82;;;21.50;28.60;;;;;;5047837;28;20112;-63
2022/03/22 12:56:24;;;;;;;11.98;8.38;;;21.60;28.70;;;;;;5045570;28;20113;-66
2022/03/22 12:58:50;;;;;;;12.45;8.25;;;21.70;28.80;;;;;;5047258;28;20021;-64
2022/03/22 13:01:16;;;;;;;12.23;8.13;;;21.80;28.40;;;;;;5045894;28;20479;-65
2022/03/22 13:03:44;;;;;;;9.85;7.05;;;21.90;28.00;;;;;;5047435;28;20022;-65
2022/03/22 13:06:11;;;;;;;12.13;7.68;;;22.00;27.50;;;;;;5045831;28;20018;-65
2022/03/22 13:11:28;;;;;;;12.02;8.00;;;22.20;27.40;;;;;;5046129;28;20094;-65
2022/03/22 13:16:55;;;;;;;12.35;7.40;;;22.30;26.30;;;;;;5043179;28;20052;-63
2022/03/22 13:19:21;;;;;;;10.52;7.00;;;22.40;25.80;;;;;;5046285;28;20073;-64
2022/03/22 13:21:46;;;;;;;9.98;7.18;;;22.40;26.40;;;;;;5057210;28;20049;-64
2022/03/22 13:24:20;;;;;;;8.95;6.68;;;22.40;26.30;;;;;;5050175;28;20033;-64